Terminal Aerodrome Forecast
Issued by NWS Spokane, WA

Current Version | Previous Version | Text Only | Print | Product List | Glossary On
Versions: 1 2 3 4 5 6 7 8 9 10 11 12 13 14 15 16 17
000
FTUS46 KOTX 182339
TAFGEG
TAF
KGEG 182339Z 1900/1924 18012KT 6SM -RA BR SCT040 OVC080
     FM190400 20015KT P6SM -RA OVC080
     FM190600 20017KT P6SM OVC100 WS015/22045KT
     FM191300 20015G21KT P6SM -RA SCT025 OVC040=

USA.gov is the U.S. government's official web portal to all federal, state and local government web resources and services.